Time;durP1;ratioP1;P1;durP2;ratioP2;P2;SDS_P1;SDS_P2;PMS_P1;PMS_P2;Temp;Humidity;BMP_temperature;BMP_pressure;BME280_temperature;BME280_humidity;BME280_pressure;Samples;Min_cycle;Max_cycle;Signal;HPM_P1;HPM_P2
2023/11/02 00:01:57;;;;;;;;;;;;;;;;;;;;;
2023/11/02 00:05:31;;;;;;;;;7.00;5.00;;;;;18.76;58.93;100368.72;146610;607;47014;-67
2023/11/02 00:08:40;;;;;;;;;5.33;5.00;;;;;20.25;59.29;100625.50;146618;573;46010;-67
2023/11/02 00:12:03;;;;;;;;;4.00;4.00;;;;;20.24;59.29;100624.59;146609;577;47012;-68
2023/11/02 00:15:01;;;;;;;;;6.00;5.00;;;;;20.22;59.86;100620.22;146617;609;46020;-69
2023/11/02 00:18:22;;;;;;;;;6.33;6.33;;;;;20.20;60.46;100628.06;146612;630;46016;-67
2023/11/02 00:21:40;;;;;;;;;8.00;6.00;;;;;19.09;61.26;100427.75;146617;620;46020;-67
2023/11/02 00:24:33;;;;;;;;;6.33;6.00;;;;;20.15;61.05;100607.81;146611;569;47013;-68
2023/11/02 00:27:39;;;;;;;;;6.67;5.67;;;;;20.07;60.72;100600.75;146617;570;46020;-67
2023/11/02 00:30:44;;;;;;;;;6.00;5.33;;;;;19.98;60.10;100602.41;146612;570;46016;-71
2023/11/02 00:33:47;;;;;;;;;4.00;3.00;;;;;19.93;61.03;100597.06;146605;573;47010;-70
2023/11/02 00:37:12;;;;;;;;;5.00;4.67;;;;;19.92;59.27;100595.31;146610;601;47014;-70
2023/11/02 00:40:05;;;;;;;;;4.33;3.00;;;;;19.91;60.30;100590.91;146616;633;46021;-70
2023/11/02 00:43:08;;;;;;;;;3.00;3.00;;;;;19.87;60.38;100593.50;146609;599;46016;-67
2023/11/02 00:46:24;;;;;;;;;4.00;3.00;;;;;18.14;59.55;100304.00;146614;606;47010;-67
2023/11/02 00:49:43;;;;;;;;;3.00;3.00;;;;;19.75;59.59;100597.75;146612;653;46016;-66
2023/11/02 00:52:48;;;;;;;;;;;;;;;;;;;;;
2023/11/02 00:56:03;;;;;;;;;;;;;;;;;;;;;
2023/11/02 00:59:10;;;;;;;;;;;;;;;;;;;;;
2023/11/02 01:02:26;;;;;;;;;1.00;1.00;;;;;19.78;55.68;100566.22;146611;606;46018;-69
2023/11/02 01:05:32;;;;;;;;;1.00;1.00;;;;;19.83;56.18;100564.50;146609;634;46010;-69
2023/11/02 01:08:44;;;;;;;;;2.00;1.00;;;;;19.89;55.67;100562.81;146609;585;46916;-69
2023/11/02 01:11:52;;;;;;;;;2.00;2.00;;;;;19.18;55.18;100421.75;146613;578;47010;-68
2023/11/02 01:15:26;;;;;;;;;1.67;0.67;;;;;19.14;56.48;100412.94;146612;581;46016;-68
2023/11/02 01:18:23;;;;;;;;;1.00;1.00;;;;;20.04;54.80;100563.84;146615;580;47010;-68
2023/11/02 01:21:29;;;;;;;;;1.33;1.33;;;;;20.05;56.25;100570.88;146611;682;46016;-68
2023/11/02 01:24:31;;;;;;;;;0.00;0.00;;;;;20.03;56.45;100562.09;146613;576;46020;-68
2023/11/02 01:27:35;;;;;;;;;1.67;1.00;;;;;20.04;56.22;100565.63;146616;596;46016;-68
2023/11/02 01:31:27;;;;;;;;;4.00;3.00;;;;;18.25;56.64;100262.12;146615;651;46010;-69
2023/11/02 01:34:33;;;;;;;;;2.00;1.00;;;;;19.88;55.26;100555.81;146612;650;46012;-68
2023/11/02 01:37:36;;;;;;;;;0.33;0.33;;;;;19.83;54.92;100556.63;146607;596;47010;-67
2023/11/02 01:41:12;;;;;;;;;1.00;1.00;;;;;18.04;56.91;100252.25;146616;573;46012;-67
2023/11/02 01:44:49;;;;;;;;;1.00;1.00;;;;;18.06;56.64;100247.03;146618;578;47010;-66
2023/11/02 01:48:27;;;;;;;;;3.33;2.33;;;;;19.55;57.08;100513.31;146613;607;46017;-68
2023/11/02 01:52:14;;;;;;;;;2.33;0.00;;;;;17.79;57.61;100227.44;146617;585;46020;-66
2023/11/02 01:56:20;;;;;;;;;1.33;0.67;;;;;17.51;57.64;100186.81;146609;599;46017;-67
2023/11/02 01:59:54;;;;;;;;;0.67;0.67;;;;;19.38;57.00;100517.50;146615;578;47010;-68
2023/11/02 02:03:27;;;;;;;;;0.33;0.33;;;;;19.34;57.73;100518.31;146612;584;46012;-68
2023/11/02 02:07:11;;;;;;;;;1.00;1.00;;;;;19.25;58.36;100518.19;146615;592;47010;-68
2023/11/02 02:10:41;;;;;;;;;2.00;1.00;;;;;19.25;58.71;100505.06;146610;578;47016;-68
2023/11/02 02:14:27;;;;;;;;;1.00;1.00;;;;;17.53;56.80;100212.16;146610;682;46010;-69
2023/11/02 02:18:08;;;;;;;;;0.67;0.00;;;;;18.44;57.12;100379.66;146612;651;46914;-67
2023/11/02 02:21:24;;;;;;;;;1.00;1.00;;;;;19.36;57.01;100504.31;146616;583;47010;-68
2023/11/02 02:24:39;;;;;;;;;1.33;0.33;;;;;19.29;57.53;100502.50;146611;650;47012;-69
2023/11/02 02:28:21;;;;;;;;;1.00;1.00;;;;;18.38;57.57;100374.31;146613;620;49020;-68
2023/11/02 02:32:10;;;;;;;;;0.67;0.67;;;;;17.79;58.32;100248.41;146615;624;46016;-67
2023/11/02 02:35:33;;;;;;;;;1.33;0.00;;;;;19.14;58.21;100486.53;146615;587;47010;-69
2023/11/02 02:38:41;;;;;;;;;1.33;0.33;;;;;19.08;57.66;100486.44;146609;592;47014;-67
2023/11/02 02:41:59;;;;;;;;;0.00;0.00;;;;;17.28;57.27;100186.44;146612;632;46020;-67
2023/11/02 02:45:09;;;;;;;;;0.00;0.00;;;;;18.96;57.48;100471.41;146614;646;46012;-70
2023/11/02 02:48:14;;;;;;;;;0.33;0.00;;;;;18.93;57.79;100477.50;146608;569;46010;-67
2023/11/02 02:51:16;;;;;;;;;4.00;1.00;;;;;18.88;57.22;100463.44;146608;584;46016;-68
2023/11/02 02:54:31;;;;;;;;;0.00;0.00;;;;;18.87;57.52;100463.41;146615;634;46021;-67
2023/11/02 02:57:44;;;;;;;;;;;;;;;;;;;;;
2023/11/02 03:00:49;;;;;;;;;1.33;0.00;;;;;18.83;57.55;100462.47;146616;564;46021;-68
2023/11/02 03:04:09;;;;;;;;;0.67;0.00;;;;;18.85;58.21;100452.88;146611;589;47012;-68
2023/11/02 03:07:11;;;;;;;;;1.00;0.00;;;;;18.84;57.46;100463.34;146612;566;47020;-68
2023/11/02 03:10:18;;;;;;;;;0.33;0.33;;;;;18.80;57.77;100456.31;146611;581;46012;-67
2023/11/02 03:13:22;;;;;;;;;0.00;0.00;;;;;18.77;57.71;100465.03;146616;573;46014;-69
2023/11/02 03:17:11;;;;;;;;;0.33;0.00;;;;;16.95;58.40;100137.91;146611;719;46014;-70
2023/11/02 03:20:23;;;;;;;;;0.00;0.00;;;;;17.05;58.23;100146.81;146629;672;46008;-70
2023/11/02 03:24:06;;;;;;;;;3.33;0.00;;;;;18.82;58.27;100462.47;146631;661;45016;-69
2023/11/02 03:27:06;;;;;;;;;2.00;0.67;;;;;18.86;58.63;100469.53;146635;581;45010;-69
2023/11/02 03:30:54;;;;;;;;;1.00;0.00;;;;;17.03;58.16;100145.87;146631;599;45915;-69
2023/11/02 03:34:21;;;;;;;;;0.00;0.00;;;;;17.31;57.32;100192.59;146622;604;47010;-69
2023/11/02 03:37:44;;;;;;;;;0.00;0.00;;;;;17.05;57.92;100162.50;146635;582;46017;-69
2023/11/02 03:41:40;;;;;;;;;0.00;0.00;;;;;17.05;58.09;100157.28;146636;571;46020;-68
2023/11/02 03:45:09;;;;;;;;;1.00;0.00;;;;;18.78;58.45;100448.38;146635;579;46013;-69
2023/11/02 03:48:52;;;;;;;;;0.00;0.00;;;;;18.76;59.08;100459.75;146633;628;45020;-68
2023/11/02 03:52:30;;;;;;;;;1.67;0.00;;;;;16.98;59.23;100148.44;146630;581;46016;-69
2023/11/02 03:56:14;;;;;;;;;0.00;0.00;;;;;17.80;58.98;100289.50;146630;608;45010;-71
2023/11/02 03:59:59;;;;;;;;;0.67;0.67;;;;;16.92;59.60;100140.50;146632;582;45016;-68
2023/11/02 04:03:21;;;;;;;;;1.33;0.00;;;;;18.62;59.80;100442.00;146636;578;46010;-69
2023/11/02 04:06:42;;;;;;;;;0.00;0.00;;;;;18.50;59.88;100435.72;146630;587;46017;-67
2023/11/02 04:10:07;;;;;;;;;0.67;0.00;;;;;18.40;59.90;100429.44;146635;565;47010;-69
2023/11/02 04:13:33;;;;;;;;;0.00;0.00;;;;;18.32;60.27;100429.34;146633;591;45012;-70
2023/11/02 04:16:28;;;;;;;;;0.33;0.33;;;;;18.30;60.96;100423.19;146633;684;45020;-70
2023/11/02 04:19:33;;;;;;;;;0.00;0.00;;;;;18.23;61.12;100403.84;146634;585;45917;-70
2023/11/02 04:23:15;;;;;;;;;2.00;2.00;;;;;15.86;60.69;100006.94;146637;598;45011;-68
2023/11/02 04:26:15;;;;;;;;;3.33;1.67;;;;;18.06;61.94;100401.81;146630;575;46010;-68
2023/11/02 04:29:29;;;;;;;;;;;;;;;;;;;;;
2023/11/02 04:32:28;;;;;;;;;1.67;0.67;;;;;17.98;62.52;100407.81;146615;566;47012;-69
2023/11/02 04:35:20;;;;;;;;;0.00;0.00;;;;;17.94;62.76;100419.13;146629;696;46010;-70
2023/11/02 04:38:18;;;;;;;;;0.67;0.00;;;;;17.92;62.79;100418.22;146630;598;46014;-68
2023/11/02 04:41:24;;;;;;;;;2.00;1.00;;;;;17.91;62.47;100419.09;146635;555;46010;-69
2023/11/02 04:44:28;;;;;;;;;2.00;1.00;;;;;17.95;63.15;100433.13;146633;577;45877;-67
2023/11/02 04:47:24;;;;;;;;;3.00;0.67;;;;;17.98;63.41;100439.31;146633;582;46020;-67
2023/11/02 04:50:22;;;;;;;;;3.00;3.00;;;;;18.00;64.80;100429.69;146629;656;46014;-68
2023/11/02 04:53:35;;;;;;;;;2.67;2.33;;;;;16.81;63.04;100234.56;146638;579;45010;-69
2023/11/02 04:56:35;;;;;;;;;2.67;2.00;;;;;18.04;63.38;100445.50;146632;589;45916;-67
2023/11/02 04:59:50;;;;;;;;;1.33;1.00;;;;;18.06;63.40;100452.53;146628;570;46010;-67
2023/11/02 05:02:57;;;;;;;;;3.00;2.33;;;;;18.10;63.26;100443.87;146631;564;46012;-71
2023/11/02 05:05:55;;;;;;;;;2.00;2.00;;;;;18.14;63.59;100455.31;146634;571;46010;-69
2023/11/02 05:09:02;;;;;;;;;2.00;2.00;;;;;18.27;67.80;100445.88;146631;610;46916;-69
2023/11/02 05:12:00;;;;;;;;;3.00;2.00;;;;;18.53;68.32;100448.88;146636;594;46010;-69
2023/11/02 05:15:01;;;;;;;;;2.33;2.00;;;;;18.81;67.03;100445.81;146632;564;46014;-70
2023/11/02 05:18:03;;;;;;;;;2.00;2.00;;;;;19.07;64.65;100448.78;146628;638;45047;-71
2023/11/02 05:20:59;;;;;;;;;2.67;2.00;;;;;19.22;64.50;100442.84;146610;572;46016;-70
2023/11/02 05:24:04;;;;;;;;;4.00;3.67;;;;;19.41;63.49;100453.53;146614;608;47010;-71
2023/11/02 05:27:09;;;;;;;;;;;;;;;;;;;;;
2023/11/02 05:30:23;;;;;;;;;2.00;2.00;;;;;18.14;62.46;100177.16;146602;601;47013;-69
2023/11/02 05:33:39;;;;;;;;;3.00;3.00;;;;;18.82;62.55;100268.09;146612;603;47012;-70
2023/11/02 05:36:49;;;;;;;;;3.00;3.00;;;;;18.45;61.27;100171.38;146617;608;46021;-70
2023/11/02 05:39:54;;;;;;;;;;;;;;;;;;;;;
2023/11/02 05:42:51;;;;;;;;;3.33;3.33;;;;;20.38;62.69;100471.13;146614;598;48021;-70
2023/11/02 05:46:04;;;;;;;;;;;;;;;;;;;;;
2023/11/02 05:49:03;;;;;;;;;3.00;1.67;;;;;21.44;57.84;100485.81;146616;625;46022;-71
2023/11/02 05:51:57;;;;;;;;;4.67;3.33;;;;;20.83;56.47;100375.69;146612;564;46012;-70
2023/11/02 05:54:49;;;;;;;;;4.00;2.67;;;;;21.30;58.04;100479.56;146615;604;46020;-70
2023/11/02 05:57:49;;;;;;;;;4.00;4.00;;;;;21.11;58.91;100503.19;146612;611;46016;-70
2023/11/02 06:00:50;;;;;;;;;9.33;8.33;;;;;20.98;58.95;100511.94;146602;633;47014;-69
2023/11/02 06:03:49;;;;;;;;;16.75;14.75;;;;;20.90;59.94;100532.09;146610;595;46916;-69
2023/11/02 06:06:43;;;;;;;;;42.25;33.75;;;;;20.75;61.88;100561.88;146605;559;47011;-69
2023/11/02 06:09:37;;;;;;;;;32.50;28.75;;;;;20.55;63.18;100590.69;146605;569;46016;-68
2023/11/02 06:12:59;;;;;;;;;18.25;14.50;;;;;20.30;62.55;100611.50;146608;649;46021;-69
2023/11/02 06:15:55;;;;;;;;;17.50;14.25;;;;;20.16;63.89;100633.31;146603;712;47016;-69
2023/11/02 06:19:01;;;;;;;;;18.50;16.25;;;;;20.12;63.86;100660.44;146607;685;47020;-69
2023/11/02 06:21:59;;;;;;;;;13.00;12.00;;;;;20.08;64.42;100683.22;146601;645;47012;-67
2023/11/02 06:24:55;;;;;;;;;18.00;15.00;;;;;20.04;65.43;100684.94;146609;566;46020;-67
2023/11/02 06:28:04;;;;;;;;;13.00;9.00;;;;;20.00;65.11;100687.50;146605;615;47013;-67
2023/11/02 06:31:00;;;;;;;;;10.75;9.75;;;;;19.95;65.75;100674.28;146601;598;46031;-68
2023/11/02 06:34:04;;;;;;;;;8.67;8.00;;;;;19.90;66.41;100648.78;146610;703;46016;-68
2023/11/02 06:37:02;;;;;;;;;25.75;22.00;;;;;19.85;66.41;100561.91;146613;573;47010;-68
2023/11/02 06:39:54;;;;;;;;;48.50;40.00;;;;;19.62;70.00;100440.59;146602;574;47012;-71
2023/11/02 06:42:49;;;;;;;;;2.67;2.67;;;;;19.06;73.75;100220.13;146611;586;46021;-69
2023/11/02 06:45:42;;;;;;;;;2.33;2.00;;;;;18.46;74.23;100178.38;146610;569;47012;-71
2023/11/02 06:48:57;;;;;;;;;3.00;2.00;;;;;18.33;72.98;100281.50;146612;624;47010;-68
2023/11/02 06:51:50;;;;;;;;;7.00;5.00;;;;;18.33;79.02;100385.59;146612;566;46017;-70
2023/11/02 06:54:44;;;;;;;;;7.00;5.33;;;;;18.28;79.03;100482.62;146617;608;46020;-70
2023/11/02 06:57:38;;;;;;;;;4.67;3.00;;;;;18.29;77.63;100507.16;146611;585;47013;-69
2023/11/02 07:00:30;;;;;;;;;4.00;3.00;;;;;18.35;77.97;100483.59;146604;569;47020;-69
2023/11/02 07:03:24;;;;;;;;;4.67;4.00;;;;;18.45;76.31;100498.66;146612;577;46016;-68
2023/11/02 07:06:20;;;;;;;;;3.00;3.00;;;;;18.56;76.04;100554.84;146616;608;46021;-68
2023/11/02 07:09:24;;;;;;;;;4.00;4.00;;;;;18.67;74.99;100600.56;146612;581;46016;-69
2023/11/02 07:12:37;;;;;;;;;5.33;5.00;;;;;18.77;74.04;100624.38;146616;581;46020;-68
2023/11/02 07:15:50;;;;;;;;;5.00;4.00;;;;;18.88;73.92;100621.06;146611;580;47014;-67
2023/11/02 07:18:49;;;;;;;;;8.67;6.67;;;;;18.97;73.22;100622.06;146617;572;46010;-69
2023/11/02 07:21:48;;;;;;;;;5.00;4.00;;;;;19.03;72.76;100624.78;146611;625;46016;-68
2023/11/02 07:25:11;;;;;;;;;10.00;8.67;;;;;17.55;71.10;100346.75;146617;600;46020;-69
2023/11/02 07:28:18;;;;;;;;;6.00;5.67;;;;;17.48;71.02;100305.59;146612;586;46014;-69
2023/11/02 07:31:18;;;;;;;;;6.67;4.67;;;;;19.23;72.79;100601.44;146602;679;46020;-68
2023/11/02 07:34:15;;;;;;;;;7.00;4.67;;;;;19.22;72.39;100591.75;146612;572;47012;-69
2023/11/02 07:37:10;;;;;;;;;7.33;7.00;;;;;19.27;72.64;100601.47;146614;603;47010;-68
2023/11/02 07:40:17;;;;;;;;;10.00;8.00;;;;;19.19;73.65;100608.38;146612;607;46014;-68
2023/11/02 07:43:21;;;;;;;;;9.33;7.00;;;;;19.02;73.56;100608.12;146620;617;46020;-68
2023/11/02 07:46:37;;;;;;;;;6.67;6.33;;;;;18.91;72.88;100597.47;146611;633;46916;-69
2023/11/02 07:49:37;;;;;;;;;9.00;6.67;;;;;18.99;74.77;100596.69;146617;569;46021;-68
2023/11/02 07:52:40;;;;;;;;;10.00;7.67;;;;;19.10;74.26;100596.00;146610;582;46016;-69
2023/11/02 07:56:00;;;;;;;;;6.00;5.67;;;;;19.22;72.79;100595.28;146614;579;47020;-69
2023/11/02 07:59:08;;;;;;;;;5.75;5.75;;;;;19.40;74.57;100576.22;146613;587;46017;-68
2023/11/02 08:02:12;;;;;;;;;7.00;6.00;;;;;19.57;72.64;100572.06;146607;574;47014;-69
2023/11/02 08:05:23;;;;;;;;;7.00;7.00;;;;;19.70;74.72;100582.78;146610;625;46016;-70
2023/11/02 08:08:36;;;;;;;;;;;;;;;;;;;;;
2023/11/02 08:11:32;;;;;;;;;8.75;8.00;;;;;19.68;73.95;100588.00;146610;675;47016;-69
2023/11/02 08:14:31;;;;;;;;;14.25;12.00;;;;;19.67;74.90;100604.66;146615;693;46010;-68
2023/11/02 08:17:32;;;;;;;;;19.75;16.00;;;;;19.67;74.80;100609.94;146601;636;46918;-69
2023/11/02 08:20:28;;;;;;;;;12.75;11.75;;;;;19.70;75.01;100616.97;146604;579;47021;-69
2023/11/02 08:23:20;;;;;;;;;19.75;17.25;;;;;19.78;74.96;100615.31;146607;613;46016;-69
2023/11/02 08:26:37;;;;;;;;;17.00;16.00;;;;;19.90;74.22;100612.81;146606;606;47021;-69
2023/11/02 08:29:31;;;;;;;;;17.75;15.75;;;;;20.10;72.84;100622.72;146602;586;47012;-69
2023/11/02 08:32:27;;;;;;;;;20.50;19.00;;;;;20.24;73.13;100618.44;146603;600;46020;-70
2023/11/02 08:35:44;;;;;;;;;23.50;20.75;;;;;19.16;70.97;100419.09;146602;633;46012;-69
2023/11/02 08:38:45;;;;;;;;;17.50;17.00;;;;;20.37;72.26;100614.19;146607;607;46010;-67
2023/11/02 08:41:43;;;;;;;;;15.50;14.25;;;;;20.38;71.27;100605.44;146605;657;46016;-68
2023/11/02 08:44:46;;;;;;;;;15.25;12.50;;;;;20.41;71.98;100605.47;146604;572;47010;-67
2023/11/02 08:47:55;;;;;;;;;10.00;10.00;;;;;20.49;71.39;100598.50;146604;566;46017;-67
2023/11/02 08:51:06;;;;;;;;;16.00;15.00;;;;;20.57;69.85;100596.84;146606;661;46020;-67
2023/11/02 08:54:11;;;;;;;;;18.25;17.25;;;;;20.66;70.12;100601.31;146600;636;47012;-68
2023/11/02 08:57:22;;;;;;;;;17.25;15.50;;;;;20.81;69.84;100612.00;146607;569;46021;-67
2023/11/02 09:00:15;;;;;;;;;15.00;13.75;;;;;20.98;70.95;100609.47;146602;592;47014;-68
2023/11/02 09:03:09;;;;;;;;;17.50;14.50;;;;;21.09;71.83;100601.59;146601;589;46020;-67
2023/11/02 09:06:02;;;;;;;;;13.50;12.00;;;;;21.25;71.80;100602.63;146606;618;46016;-69
2023/11/02 09:09:02;;;;;;;;;14.00;13.75;;;;;21.56;71.29;100599.28;146606;672;46020;-68
2023/11/02 09:12:21;;;;;;;;;17.50;16.50;;;;;22.02;66.62;100602.06;146610;634;46016;-68
2023/11/02 09:15:45;;;;;;;;;21.25;16.00;;;;;21.38;66.51;100417.19;146610;679;48014;-68
2023/11/02 09:18:46;;;;;;;;;22.75;17.00;;;;;22.81;65.55;100605.69;146605;580;46017;-69
2023/11/02 09:21:47;;;;;;;;;22.00;19.50;;;;;23.14;64.66;100588.91;146609;665;46020;-68
2023/11/02 09:24:45;;;;;;;;;20.25;17.00;;;;;23.45;62.86;100579.13;146605;660;46918;-66
2023/11/02 09:27:51;;;;;;;;;15.50;14.25;;;;;23.69;62.31;100570.22;146608;609;46043;-68
2023/11/02 09:30:49;;;;;;;;;19.00;15.00;;;;;23.93;61.71;100558.63;146602;644;47016;-69
2023/11/02 09:33:46;;;;;;;;;12.33;12.33;;;;;24.14;60.29;100538.16;146604;607;46010;-68
2023/11/02 09:37:22;;;;;;;;;14.00;11.00;;;;;22.84;59.53;100275.25;146604;563;47012;-70
2023/11/02 09:40:32;;;;;;;;;13.67;10.67;;;;;24.53;58.52;100515.81;146610;569;46011;-68
2023/11/02 09:43:36;;;;;;;;;12.33;11.00;;;;;24.69;59.36;100513.00;146608;614;46016;-70
2023/11/02 09:46:41;;;;;;;;;10.33;9.00;;;;;24.82;60.18;100498.72;146607;560;47010;-68
2023/11/02 09:49:44;;;;;;;;;9.00;8.00;;;;;24.96;59.09;100498.59;146612;579;46016;-66
2023/11/02 09:52:37;;;;;;;;;9.00;7.67;;;;;25.06;57.30;100497.56;146603;565;46014;-67
2023/11/02 09:55:37;;;;;;;;;9.33;8.67;;;;;25.16;57.25;100480.66;146603;575;46013;-68
2023/11/02 09:58:51;;;;;;;;;11.33;10.33;;;;;25.32;56.22;100474.25;146602;628;46014;-68
2023/11/02 10:01:49;;;;;;;;;11.67;8.67;;;;;25.43;52.59;100457.34;146600;599;46012;-68
2023/11/02 10:04:50;;;;;;;;;9.33;8.00;;;;;25.44;56.79;100470.56;146600;574;46030;-68
2023/11/02 10:07:45;;;;;;;;;8.00;7.67;;;;;25.48;54.59;100452.81;146601;563;46916;-70
2023/11/02 10:10:39;;;;;;;;;11.33;8.33;;;;;25.58;53.09;100451.81;146603;564;46010;-69
2023/11/02 10:13:45;;;;;;;;;6.67;5.00;;;;;25.64;54.52;100442.84;146597;679;47916;-69
2023/11/02 10:16:40;;;;;;;;;4.00;4.00;;;;;25.70;53.59;100450.72;146601;578;47010;-68
2023/11/02 10:19:45;;;;;;;;;5.33;3.00;;;;;25.72;54.91;100443.63;146627;673;45916;-71
2023/11/02 10:23:12;;;;;;;;;2.33;2.33;;;;;25.64;55.91;100435.78;146628;751;45028;-69
2023/11/02 10:26:18;;;;;;;;;4.00;3.00;;;;;25.54;55.30;100432.34;146625;687;45914;-70
2023/11/02 10:29:11;;;;;;;;;6.67;4.67;;;;;25.54;53.90;100420.88;146626;607;45920;-68
2023/11/02 10:32:03;;;;;;;;;3.00;3.00;;;;;25.52;52.79;100414.72;146630;577;45013;-72
2023/11/02 10:35:06;;;;;;;;;4.00;3.33;;;;;25.54;54.01;100405.81;146628;618;46010;-73
2023/11/02 10:38:19;;;;;;;;;2.67;2.67;;;;;25.62;54.24;100402.19;146626;569;45016;-68
2023/11/02 10:41:24;;;;;;;;;0.00;0.00;;;;;25.68;54.10;100394.13;146626;651;45021;-71
2023/11/02 10:44:20;;;;;;;;;4.00;3.00;;;;;25.63;52.60;100386.22;146624;563;46010;-68
2023/11/02 10:47:26;;;;;;;;;4.00;3.00;;;;;25.57;53.67;100388.97;146628;622;45920;-68
2023/11/02 10:50:40;;;;;;;;;2.67;2.67;;;;;25.56;53.93;100384.56;146625;580;45915;-70
2023/11/02 10:54:06;;;;;;;;;2.33;2.00;;;;;25.60;54.10;100378.28;146627;573;45021;-68
2023/11/02 10:57:33;;;;;;;;;3.00;3.00;;;;;25.63;53.89;100374.72;146628;609;45913;-68
2023/11/02 11:00:58;;;;;;;;;2.33;2.33;;;;;23.96;54.08;100075.78;146632;683;45010;-70
2023/11/02 11:03:50;;;;;;;;;3.00;3.00;;;;;25.70;51.77;100360.44;146622;580;46010;-68
2023/11/02 11:07:00;;;;;;;;;4.00;2.33;;;;;24.41;54.51;100115.72;146623;592;46020;-71
2023/11/02 11:10:25;;;;;;;;;3.67;3.67;;;;;24.43;52.59;100103.38;146623;570;45916;-69
2023/11/02 11:13:34;;;;;;;;;6.67;4.00;;;;;26.03;52.44;100356.34;146625;564;46020;-69
2023/11/02 11:16:29;;;;;;;;;3.00;3.00;;;;;26.11;51.93;100356.22;146625;640;45017;-68
2023/11/02 11:19:32;;;;;;;;;5.33;4.33;;;;;26.19;51.96;100347.19;146629;572;45020;-68
2023/11/02 11:22:52;;;;;;;;;1.00;0.33;;;;;24.69;52.47;100078.22;146603;595;46016;-69
2023/11/02 11:26:14;;;;;;;;;2.67;2.67;;;;;26.31;51.83;100345.22;146626;588;45020;-69
2023/11/02 11:29:53;;;;;;;;;4.67;4.67;;;;;24.89;51.76;100092.00;146622;568;46016;-69
2023/11/02 11:33:01;;;;;;;;;4.00;3.00;;;;;26.44;51.72;100344.06;146631;730;45010;-70
2023/11/02 11:36:40;;;;;;;;;7.33;6.00;;;;;26.35;53.04;100349.56;146616;579;47012;-69
2023/11/02 11:39:39;;;;;;;;;7.33;6.00;;;;;26.20;51.58;100350.72;146626;619;46010;-69
2023/11/02 11:43:12;;;;;;;;;5.00;4.67;;;;;26.04;53.13;100347.47;146619;581;46014;-69
2023/11/02 11:46:33;;;;;;;;;5.00;4.33;;;;;26.00;51.74;100351.09;146630;569;45030;-69
2023/11/02 11:49:56;;;;;;;;;4.00;2.67;;;;;25.95;52.11;100345.87;146628;566;46012;-68
2023/11/02 11:52:55;;;;;;;;;3.67;3.00;;;;;25.82;51.07;100335.50;146628;599;45923;-70
2023/11/02 11:56:36;;;;;;;;;2.67;2.67;;;;;24.97;52.72;100203.25;146625;685;45016;-69
2023/11/02 12:00:22;;;;;;;;;4.33;3.00;;;;;25.66;52.01;100327.75;146628;657;47010;-70
2023/11/02 12:04:02;;;;;;;;;3.00;3.00;;;;;23.92;53.30;100036.97;146625;641;47012;-69
2023/11/02 12:07:01;;;;;;;;;3.00;3.00;;;;;25.64;53.20;100318.97;146628;634;46010;-70
2023/11/02 12:10:22;;;;;;;;;4.67;3.00;;;;;24.18;53.17;100053.38;146623;631;46016;-70
2023/11/02 12:13:28;;;;;;;;;5.00;3.00;;;;;25.84;53.49;100315.97;146628;594;46010;-67
2023/11/02 12:16:38;;;;;;;;;3.00;2.00;;;;;25.94;52.12;100314.03;146627;689;46013;-68
2023/11/02 12:19:46;;;;;;;;;3.00;3.00;;;;;24.77;52.73;100108.13;146623;598;46020;-68
2023/11/02 12:22:55;;;;;;;;;2.00;1.33;;;;;26.08;53.89;100303.16;146628;695;45917;-66
2023/11/02 12:25:55;;;;;;;;;6.00;3.00;;;;;26.25;51.10;100307.22;146628;593;46010;-68
2023/11/02 12:29:03;;;;;;;;;3.67;3.00;;;;;24.79;51.06;100018.81;146622;573;46014;-68
2023/11/02 12:32:27;;;;;;;;;2.33;1.67;;;;;26.34;51.19;100294.66;146629;666;46010;-68
2023/11/02 12:35:24;;;;;;;;;2.67;2.67;;;;;26.38;52.12;100289.22;146628;714;45025;-67
2023/11/02 12:38:58;;;;;;;;;4.00;3.00;;;;;26.54;51.58;100296.91;146627;621;46010;-67
2023/11/02 12:42:17;;;;;;;;;5.00;3.33;;;;;26.63;51.41;100289.62;146620;584;45020;-67
2023/11/02 12:45:18;;;;;;;;;2.00;2.00;;;;;26.66;50.10;100283.34;146626;565;45020;-68
2023/11/02 12:48:42;;;;;;;;;1.33;1.33;;;;;26.69;51.32;100280.63;146624;605;45917;-68
2023/11/02 12:52:11;;;;;;;;;3.67;2.67;;;;;26.78;49.31;100279.56;146627;651;46010;-69
2023/11/02 12:55:25;;;;;;;;;4.00;2.00;;;;;26.77;51.15;100280.47;146629;714;46012;-67
2023/11/02 12:58:48;;;;;;;;;;;;;;;;;;;;;
2023/11/02 13:02:13;;;;;;;;;2.00;1.33;;;;;25.16;49.07;100021.69;146624;578;46010;-67
2023/11/02 13:05:23;;;;;;;;;2.00;2.00;;;;;26.34;48.31;100263.63;146625;581;46020;-67
2023/11/02 13:08:50;;;;;;;;;1.67;1.67;;;;;24.62;50.71;100020.00;146622;574;46014;-67
2023/11/02 13:12:10;;;;;;;;;0.33;0.00;;;;;25.91;51.11;100258.28;146629;564;45020;-68
2023/11/02 13:15:35;;;;;;;;;7.00;3.67;;;;;24.42;52.12;100015.06;146615;608;47012;-67
2023/11/02 13:18:50;;;;;;;;;5.67;3.67;;;;;25.85;51.20;100256.63;146610;563;45917;-67
2023/11/02 13:22:05;;;;;;;;;4.33;3.00;;;;;25.98;51.83;100255.50;146600;597;47012;-68
2023/11/02 13:25:09;;;;;;;;;1.67;1.67;;;;;26.09;50.44;100259.72;146604;565;46020;-68
2023/11/02 13:28:06;;;;;;;;;3.33;2.67;;;;;26.12;49.79;100257.87;146600;589;46016;-67
2023/11/02 13:31:09;;;;;;;;;3.00;2.67;;;;;26.12;50.65;100249.91;146604;569;47011;-67
2023/11/02 13:34:09;;;;;;;;;3.67;2.00;;;;;26.09;49.02;100244.66;146600;626;46029;-67
2023/11/02 13:37:18;;;;;;;;;4.00;2.00;;;;;25.94;50.06;100247.59;146598;643;47010;-67
2023/11/02 13:40:25;;;;;;;;;1.33;1.33;;;;;25.83;51.81;100245.19;146597;722;47016;-67
2023/11/02 13:43:21;;;;;;;;;1.33;1.33;;;;;25.69;50.99;100237.41;146604;665;46020;-68
2023/11/02 13:46:22;;;;;;;;;4.33;1.67;;;;;25.47;51.46;100234.28;146600;608;46012;-67
2023/11/02 13:49:15;;;;;;;;;3.00;2.00;;;;;25.21;52.26;100231.22;146600;610;47010;-67
2023/11/02 13:52:26;;;;;;;;;1.33;1.33;;;;;24.98;53.30;100223.56;146598;577;46031;-67
2023/11/02 13:55:31;;;;;;;;;2.00;1.33;;;;;24.79;54.01;100221.19;146605;566;47020;-67
2023/11/02 13:58:37;;;;;;;;;0.00;0.00;;;;;24.60;54.45;100232.97;146601;742;46025;-67
2023/11/02 14:01:42;;;;;;;;;1.00;1.00;;;;;24.40;54.59;100231.44;146604;626;46010;-67
2023/11/02 14:04:40;;;;;;;;;1.00;1.00;;;;;24.18;54.55;100232.63;146601;570;46016;-68
2023/11/02 14:07:42;;;;;;;;;0.67;0.67;;;;;23.99;55.63;100242.56;146601;585;47020;-69
2023/11/02 14:10:39;;;;;;;;;2.00;0.00;;;;;23.87;55.85;100243.56;146601;653;46016;-67
2023/11/02 14:13:43;;;;;;;;;1.00;1.00;;;;;23.68;55.38;100249.94;146601;715;47010;-67
2023/11/02 14:16:56;;;;;;;;;2.00;2.00;;;;;23.48;56.23;100256.25;146600;578;46016;-68
2023/11/02 14:20:09;;;;;;;;;2.00;2.00;;;;;23.36;56.15;100240.50;146602;578;46036;-67
2023/11/02 14:23:17;;;;;;;;;1.00;1.00;;;;;23.28;56.39;100240.56;146595;571;47014;-68
2023/11/02 14:26:35;;;;;;;;;2.67;0.67;;;;;23.19;55.30;100248.59;146599;613;47010;-67
2023/11/02 14:29:33;;;;;;;;;1.00;1.00;;;;;23.09;56.35;100241.63;146599;567;47016;-68
2023/11/02 14:32:30;;;;;;;;;0.67;0.67;;;;;22.97;56.99;100245.22;146602;628;46020;-68
2023/11/02 14:35:25;;;;;;;;;0.00;0.00;;;;;22.88;57.45;100245.25;146601;614;47012;-68
2023/11/02 14:39:11;;;;;;;;;1.00;1.00;;;;;20.74;57.27;99885.59;146602;596;46036;-67
2023/11/02 14:42:07;;;;;;;;;4.00;2.33;;;;;22.83;57.75;100253.22;146600;605;47016;-69
2023/11/02 14:45:02;;;;;;;;;3.67;2.00;;;;;22.82;58.08;100254.09;146604;638;46020;-68
2023/11/02 14:47:57;;;;;;;;;3.67;3.00;;;;;22.81;57.98;100262.94;146597;595;47014;-68
2023/11/02 14:50:53;;;;;;;;;2.67;2.00;;;;;22.81;58.00;100269.97;146602;650;47010;-68
2023/11/02 14:53:51;;;;;;;;;4.00;3.00;;;;;22.78;58.14;100270.00;146599;597;46016;-67
2023/11/02 14:56:49;;;;;;;;;0.67;0.67;;;;;22.77;58.75;100278.78;146603;594;46010;-67
2023/11/02 14:59:50;;;;;;;;;4.00;2.00;;;;;22.77;59.22;100271.78;146600;611;49017;-67